Time;durP1;ratioP1;P1;durP2;ratioP2;P2;SDS_P1;SDS_P2;PMS_P1;PMS_P2;Temp;Humidity;BMP_temperature;BMP_pressure;BME280_temperature;BME280_humidity;BME280_pressure;Samples;Min_cycle;Max_cycle;Signal;HPM_P1;HPM_P2
2023/08/18 00:01:14;;;;;;;1.47;1.37;;;19.40;99.90;;;;;;5143544;22;20459;-88
2023/08/18 00:04:09;;;;;;;1.63;1.53;;;19.40;99.90;;;;;;5021768;28;20466;-89
2023/08/18 00:06:37;;;;;;;1.77;1.67;;;19.40;99.90;;;;;;5025691;28;20513;-86
2023/08/18 00:09:15;;;;;;;1.57;1.50;;;19.50;99.90;;;;;;5002099;28;20474;-86
2023/08/18 00:11:43;;;;;;;1.03;1.03;;;19.40;99.90;;;;;;5008400;28;20452;-85
2023/08/18 00:14:18;;;;;;;0.80;0.80;;;19.20;99.90;;;;;;4997266;28;20786;-84
2023/08/18 00:16:47;;;;;;;3.33;3.03;;;19.30;99.90;;;;;;5006949;28;20522;-85
2023/08/18 00:19:15;;;;;;;2.10;1.90;;;19.20;99.90;;;;;;5001259;28;20782;-84
2023/08/18 00:21:48;;;;;;;1.13;1.07;;;19.20;99.90;;;;;;5027721;28;20421;-86
2023/08/18 00:24:36;;;;;;;2.30;2.13;;;19.30;99.90;;;;;;5002079;28;20465;-86
2023/08/18 00:27:05;;;;;;;4.37;4.07;;;19.10;99.90;;;;;;5016717;28;20438;-85
2023/08/18 00:29:34;;;;;;;1.80;1.70;;;19.10;99.90;;;;;;5008651;28;20500;-85
2023/08/18 00:32:11;;;;;;;1.67;1.60;;;19.10;99.90;;;;;;5009218;28;20533;-86
2023/08/18 00:34:42;;;;;;;1.00;1.00;;;19.10;99.90;;;;;;4992774;28;20470;-86
2023/08/18 00:37:13;;;;;;;1.30;1.20;;;19.00;99.90;;;;;;5003604;28;21328;-86
2023/08/18 00:39:53;;;;;;;1.73;1.63;;;19.00;99.90;;;;;;5004386;28;20428;-86
2023/08/18 00:42:30;;;;;;;0.80;0.80;;;19.00;99.90;;;;;;5032380;28;20430;-86
2023/08/18 00:45:00;;;;;;;3.20;3.00;;;18.90;99.90;;;;;;5027718;28;20438;-84
2023/08/18 00:47:29;;;;;;;1.43;1.33;;;18.90;99.90;;;;;;5030378;28;20455;-84
2023/08/18 00:50:06;;;;;;;2.10;2.00;;;18.80;99.90;;;;;;5004405;28;20774;-84
2023/08/18 00:52:40;;;;;;;0.97;0.97;;;18.80;99.90;;;;;;5001100;28;20442;-85
2023/08/18 00:55:16;;;;;;;0.87;0.83;;;18.80;99.90;;;;;;5010325;28;20572;-85
2023/08/18 00:57:46;;;;;;;1.70;1.60;;;18.70;99.90;;;;;;4995791;28;20685;-84
2023/08/18 01:00:16;;;;;;;1.17;1.17;;;18.80;99.90;;;;;;5002666;28;20500;-84
2023/08/18 01:02:46;;;;;;;1.03;0.97;;;18.70;99.90;;;;;;4996532;28;20607;-86
2023/08/18 01:05:21;;;;;;;1.23;1.23;;;18.70;99.90;;;;;;5002668;28;20667;-86
2023/08/18 01:07:48;;;;;;;1.30;1.20;;;18.70;99.90;;;;;;5037615;28;20437;-86
2023/08/18 01:10:28;;;;;;;2.80;2.70;;;18.50;99.90;;;;;;5035680;28;20400;-88
2023/08/18 01:13:54;;;;;;;2.07;1.87;;;18.60;99.90;;;;;;5012545;28;20443;-87
2023/08/18 01:16:25;;;;;;;1.00;1.00;;;18.70;99.90;;;;;;5011455;28;20473;-84
2023/08/18 01:18:53;;;;;;;3.70;3.40;;;18.60;99.90;;;;;;5014894;28;20425;-85
2023/08/18 01:21:28;;;;;;;2.67;2.50;;;18.60;99.90;;;;;;5005395;28;20431;-85
2023/08/18 01:24:03;;;;;;;1.80;1.70;;;18.50;99.90;;;;;;4987541;28;20632;-85
2023/08/18 01:26:33;;;;;;;4.10;2.07;;;18.40;99.90;;;;;;5006820;28;20450;-85
2023/08/18 01:29:16;;;;;;;1.83;1.70;;;18.40;99.90;;;;;;5016676;28;20451;-86
2023/08/18 01:34:52;;;;;;;1.70;1.60;;;18.40;99.90;;;;;;5227999;23;20870;-86
2023/08/18 01:40:18;;;;;;;;;;;;;;;;;;;;;
2023/08/18 01:43:01;;;;;;;2.40;2.20;;;18.50;99.90;;;;;;5203695;22;20503;-86
2023/08/18 01:45:28;;;;;;;2.77;2.57;;;18.60;99.90;;;;;;5388883;22;20492;-85
2023/08/18 01:53:26;;;;;;;2.20;2.00;;;18.50;99.90;;;;;;5379211;22;20497;-88
2023/08/18 01:56:02;;;;;;;3.33;2.27;;;18.80;99.90;;;;;;5333676;22;20745;-88
2023/08/18 01:58:47;;;;;;;2.37;2.27;;;18.60;99.90;;;;;;5039376;28;20448;-87
2023/08/18 02:04:10;;;;;;;2.50;2.40;;;18.70;99.90;;;;;;5489190;22;20496;-87
2023/08/18 02:06:49;;;;;;;1.17;1.17;;;18.70;99.90;;;;;;5053290;28;20412;-88
2023/08/18 02:09:34;;;;;;;1.00;0.97;;;18.60;99.90;;;;;;5055854;28;20441;-88
2023/08/18 02:12:03;;;;;;;1.93;1.83;;;18.60;99.90;;;;;;5042990;28;20500;-85
2023/08/18 02:17:06;;;;;;;1.67;1.57;;;18.50;99.90;;;;;;5606879;22;20473;-86
2023/08/18 02:19:34;;;;;;;2.00;1.90;;;18.50;99.90;;;;;;5022669;28;20428;-85
2023/08/18 02:22:03;;;;;;;2.10;2.00;;;18.40;99.90;;;;;;5056515;28;20429;-87
2023/08/18 02:24:51;;;;;;;1.53;1.43;;;18.40;99.90;;;;;;5033022;28;20409;-87
2023/08/18 02:27:45;;;;;;;2.07;1.87;;;18.50;99.90;;;;;;5060195;28;20407;-88
2023/08/18 02:30:19;;;;;;;1.90;1.80;;;18.30;99.90;;;;;;5209054;22;20491;-86
2023/08/18 02:32:50;;;;;;;1.20;1.10;;;18.30;99.90;;;;;;5041611;28;20421;-85
2023/08/18 02:35:21;;;;;;;1.63;1.53;;;18.40;99.90;;;;;;5028775;28;20785;-85
2023/08/18 02:38:18;;;;;;;1.00;1.00;;;18.50;99.90;;;;;;5175770;22;20513;-86
2023/08/18 02:40:57;;;;;;;1.13;1.13;;;18.30;99.90;;;;;;5043082;28;20548;-86
2023/08/18 02:43:53;;;;;;;2.63;2.53;;;18.30;99.90;;;;;;5039602;28;20775;-85
2023/08/18 02:46:53;;;;;;;;;;;;;;;;;;;;;
2023/08/18 02:49:47;;;;;;;;;;;;;;;;;;;;;
2023/08/18 02:52:25;;;;;;;2.40;2.20;;;18.10;99.90;;;;;;5038047;28;20485;-88
2023/08/18 02:55:55;;;;;;;;;;;;;;;;;;;;;
2023/08/18 03:02:08;;;;;;;2.00;1.90;;;18.40;99.90;;;;;;5316908;22;20472;-89
2023/08/18 03:12:55;;;;;;;2.07;1.97;;;18.40;99.90;;;;;;5117367;22;20508;-82
2023/08/18 03:15:26;;;;;;;1.90;1.40;;;18.50;99.90;;;;;;5041350;28;20485;-85
2023/08/18 03:18:07;;;;;;;1.47;1.37;;;18.70;99.90;;;;;;5030930;28;20451;-85
2023/08/18 03:20:34;;;;;;;1.70;1.60;;;18.50;99.90;;;;;;5037907;28;20465;-79
2023/08/18 03:23:01;;;;;;;1.47;1.43;;;18.70;99.90;;;;;;5038145;28;20592;-91
2023/08/18 03:26:03;;;;;;;2.80;2.60;;;18.50;99.90;;;;;;5107064;23;20849;-87
2023/08/18 03:28:37;;;;;;;1.30;1.20;;;18.50;99.90;;;;;;5201676;23;20485;-87
2023/08/18 03:31:30;;;;;;;2.90;2.40;;;18.40;99.90;;;;;;5040798;28;20404;-89
2023/08/18 03:34:29;;;;;;;2.93;2.70;;;18.30;99.90;;;;;;5522060;22;20450;-89
2023/08/18 03:37:11;;;;;;;1.63;1.37;;;18.30;99.90;;;;;;5021638;28;20449;-88
2023/08/18 03:40:07;;;;;;;1.40;1.40;;;18.30;99.90;;;;;;5463078;23;20489;-89
2023/08/18 03:42:38;;;;;;;1.30;1.30;;;18.40;99.90;;;;;;5014651;28;20453;-89
2023/08/18 03:45:20;;;;;;;1.90;1.80;;;18.30;99.90;;;;;;5048569;28;20629;-88
2023/08/18 03:48:08;;;;;;;1.60;1.50;;;18.60;99.90;;;;;;5036990;28;20450;-88
2023/08/18 03:50:53;;;;;;;2.20;2.10;;;18.50;99.90;;;;;;5021060;28;20517;-89
2023/08/18 03:56:25;;;;;;;2.17;2.07;;;18.40;99.90;;;;;;5040342;28;20455;-88
2023/08/18 03:59:04;;;;;;;1.70;1.60;;;18.40;99.90;;;;;;5025035;28;20544;-88
2023/08/18 04:01:44;;;;;;;1.57;1.47;;;18.40;99.90;;;;;;5271201;22;20484;-89
2023/08/18 04:04:14;;;;;;;1.83;1.17;;;18.50;99.90;;;;;;5325750;22;20464;-80
2023/08/18 04:06:41;;;;;;;1.70;1.60;;;18.30;99.90;;;;;;5049750;22;20561;-82
2023/08/18 04:09:28;;;;;;;1.63;1.53;;;18.40;99.90;;;;;;5018981;28;20923;-89
2023/08/18 04:11:56;;;;;;;2.30;2.00;;;18.60;99.90;;;;;;5212469;22;20515;-87
2023/08/18 04:14:44;;;;;;;2.63;2.43;;;18.60;99.90;;;;;;5063581;28;20437;-88
2023/08/18 04:17:22;;;;;;;3.43;1.93;;;18.60;99.90;;;;;;5053013;28;20521;-88
2023/08/18 04:19:52;;;;;;;0.87;0.87;;;18.60;99.90;;;;;;5052105;28;20433;-83
2023/08/18 04:22:28;;;;;;;1.53;1.43;;;18.60;99.90;;;;;;5054738;28;20432;-80
2023/08/18 04:24:55;;;;;;;1.57;1.47;;;18.80;99.90;;;;;;5054590;28;20649;-87
2023/08/18 04:30:15;;;;;;;1.27;1.17;;;18.80;99.90;;;;;;5432953;22;20445;-89
2023/08/18 04:35:41;;;;;;;2.00;1.90;;;18.70;99.90;;;;;;5417400;22;20490;-89
2023/08/18 04:38:45;;;;;;;2.77;2.53;;;18.80;99.90;;;;;;4980079;28;20427;-88
2023/08/18 04:52:42;;;;;;;2.83;2.63;;;19.30;99.90;;;;;;4926304;29;20964;-88
2023/08/18 04:58:12;;;;;;;;;;;;;;;;;;;;;
2023/08/18 05:00:59;;;;;;;1.63;1.53;;;19.50;99.90;;;;;;5033761;28;20525;-89
2023/08/18 05:06:58;;;;;;;1.60;1.50;;;20.00;99.90;;;;;;5036332;28;20485;-87
2023/08/18 05:09:44;;;;;;;1.60;1.50;;;20.20;99.90;;;;;;5038054;28;20472;-87
2023/08/18 05:12:51;;;;;;;2.03;1.50;;;20.40;99.90;;;;;;5036439;28;20849;-88
2023/08/18 05:16:01;;;;;;;;;;;;;;;;;;;;;
2023/08/18 05:18:39;;;;;;;1.87;1.77;;;20.50;99.90;;;;;;5043412;28;20439;-88
2023/08/18 05:21:07;;;;;;;0.80;0.80;;;20.60;99.90;;;;;;5021379;28;20449;-84
2023/08/18 05:23:34;;;;;;;1.30;1.20;;;20.60;99.90;;;;;;5031509;28;20572;-81
2023/08/18 05:26:07;;;;;;;1.50;1.40;;;20.50;99.90;;;;;;5045994;28;20773;-86
2023/08/18 05:29:03;;;;;;;0.90;0.90;;;20.60;99.90;;;;;;5009447;28;20456;-88
2023/08/18 05:31:35;;;;;;;2.23;2.10;;;20.70;99.90;;;;;;5015734;28;20432;-87
2023/08/18 05:34:11;;;;;;;4.77;3.27;;;20.80;99.90;;;;;;5019676;28;20505;-90
2023/08/18 05:37:04;;;;;;;1.63;1.53;;;20.90;99.90;;;;;;5023122;28;20762;-89
2023/08/18 05:39:33;;;;;;;0.60;0.60;;;21.00;99.90;;;;;;5005602;28;20415;-89
2023/08/18 05:42:11;;;;;;;1.13;1.13;;;21.10;99.90;;;;;;4998563;28;20509;-87
2023/08/18 05:45:10;;;;;;;1.10;1.10;;;21.20;99.90;;;;;;5036207;28;20442;-88
2023/08/18 05:47:42;;;;;;;1.80;1.70;;;21.30;99.90;;;;;;5050527;28;20449;-86
2023/08/18 05:50:15;;;;;;;2.27;2.17;;;21.40;99.90;;;;;;5035037;28;20432;-84
2023/08/18 05:52:45;;;;;;;0.80;0.80;;;21.60;99.90;;;;;;5028581;28;20432;-82
2023/08/18 05:55:13;;;;;;;3.37;3.07;;;21.70;99.90;;;;;;5028926;28;20801;-81
2023/08/18 05:58:11;;;;;;;1.23;1.20;;;21.70;99.90;;;;;;5043564;28;20527;-90
2023/08/18 06:00:41;;;;;;;1.90;1.80;;;22.00;99.90;;;;;;5036918;28;20421;-87
2023/08/18 06:03:13;;;;;;;1.27;1.17;;;22.10;99.90;;;;;;5036401;28;20626;-87
2023/08/18 06:05:44;;;;;;;2.13;2.03;;;22.20;99.90;;;;;;5038703;28;20827;-86
2023/08/18 06:08:10;;;;;;;0.80;0.80;;;22.30;99.90;;;;;;5036658;28;20418;-85
2023/08/18 06:10:40;;;;;;;1.37;1.27;;;22.30;99.90;;;;;;5038623;28;20424;-86
2023/08/18 06:13:08;;;;;;;1.40;1.40;;;22.10;99.90;;;;;;5025718;28;20433;-85
2023/08/18 06:15:38;;;;;;;2.00;1.90;;;22.00;99.90;;;;;;5037409;28;20481;-82
2023/08/18 06:18:08;;;;;;;1.57;1.47;;;21.80;99.90;;;;;;5038439;28;20782;-85
2023/08/18 06:20:35;;;;;;;1.47;1.37;;;21.80;99.90;;;;;;5039614;28;20446;-86
2023/08/18 06:23:04;;;;;;;2.23;2.10;;;21.80;99.90;;;;;;5042465;28;20509;-86
2023/08/18 06:25:31;;;;;;;1.83;1.73;;;22.20;99.90;;;;;;5042742;28;20441;-83
2023/08/18 06:27:58;;;;;;;1.53;1.43;;;22.40;99.90;;;;;;5042376;28;20511;-86
2023/08/18 06:30:27;;;;;;;2.27;2.17;;;22.50;99.90;;;;;;5039820;28;20448;-88
2023/08/18 06:32:55;;;;;;;1.00;1.00;;;22.90;99.90;;;;;;5030261;28;20505;-79
2023/08/18 06:35:26;;;;;;;1.03;1.03;;;23.30;99.80;;;;;;5025442;28;20421;-86
2023/08/18 06:37:55;;;;;;;1.27;1.17;;;23.40;99.10;;;;;;5037070;28;20484;-89
2023/08/18 06:40:22;;;;;;;0.90;0.90;;;23.70;98.10;;;;;;5022155;28;20453;-84
2023/08/18 06:42:52;;;;;;;1.60;1.20;;;23.90;97.10;;;;;;5030800;28;20492;-87
2023/08/18 06:45:20;;;;;;;0.77;0.77;;;23.90;96.70;;;;;;5041281;28;20452;-84
2023/08/18 06:47:46;;;;;;;2.10;1.93;;;24.20;95.80;;;;;;5022629;28;20416;-81
2023/08/18 06:50:14;;;;;;;1.80;1.70;;;24.60;95.10;;;;;;5037225;28;20412;-85
2023/08/18 06:52:41;;;;;;;1.37;1.30;;;24.60;95.70;;;;;;5034253;28;20769;-85
2023/08/18 06:55:13;;;;;;;1.43;1.33;;;24.70;95.30;;;;;;5028583;28;20429;-86
2023/08/18 06:57:47;;;;;;;1.10;0.90;;;24.90;94.90;;;;;;5033860;28;20681;-80
2023/08/18 07:00:15;;;;;;;1.00;1.00;;;24.90;94.30;;;;;;5040637;28;20675;-84
2023/08/18 07:02:49;;;;;;;0.90;0.90;;;25.20;94.00;;;;;;5033414;28;20815;-82
2023/08/18 07:05:17;;;;;;;1.93;1.83;;;24.80;93.90;;;;;;5032665;28;20448;-87
2023/08/18 07:07:44;;;;;;;2.20;2.10;;;24.70;94.50;;;;;;5037450;28;20441;-88
2023/08/18 07:10:12;;;;;;;2.73;2.63;;;24.30;95.50;;;;;;5015888;28;20492;-85
2023/08/18 07:12:39;;;;;;;1.70;1.60;;;23.90;96.00;;;;;;5032072;28;20496;-89
2023/08/18 07:15:06;;;;;;;1.63;1.53;;;23.80;96.40;;;;;;5032958;28;20505;-82
2023/08/18 07:17:33;;;;;;;1.80;1.70;;;23.40;97.50;;;;;;5024149;28;20509;-85
2023/08/18 07:20:00;;;;;;;1.90;1.73;;;23.20;97.80;;;;;;5031783;28;20601;-90
2023/08/18 07:22:27;;;;;;;2.03;1.93;;;23.30;98.20;;;;;;5028192;28;20449;-84
2023/08/18 07:24:54;;;;;;;1.87;1.77;;;23.40;97.80;;;;;;5032058;28;20579;-86
2023/08/18 07:27:22;;;;;;;1.23;1.23;;;23.40;97.80;;;;;;5023439;28;20428;-88
2023/08/18 07:29:48;;;;;;;2.27;2.17;;;23.30;97.80;;;;;;5030966;28;20462;-85
2023/08/18 07:32:16;;;;;;;0.90;0.90;;;23.30;97.80;;;;;;5032986;28;20458;-87
2023/08/18 07:34:47;;;;;;;1.50;1.40;;;23.50;97.60;;;;;;5021630;28;20424;-85
2023/08/18 07:37:14;;;;;;;1.20;1.20;;;23.60;97.20;;;;;;5036500;28;20486;-83
2023/08/18 07:39:42;;;;;;;1.67;1.57;;;23.70;97.40;;;;;;5031826;28;20417;-83
2023/08/18 07:42:10;;;;;;;1.20;1.10;;;23.80;97.20;;;;;;5027257;28;20452;-89
2023/08/18 07:44:37;;;;;;;2.40;2.30;;;23.70;96.80;;;;;;5027276;28;20435;-85
2023/08/18 07:47:05;;;;;;;2.80;2.60;;;24.10;96.10;;;;;;5047881;28;20508;-86
2023/08/18 07:49:32;;;;;;;1.00;1.00;;;24.10;96.70;;;;;;5032022;28;20521;-81
2023/08/18 07:51:59;;;;;;;0.80;0.80;;;24.10;96.30;;;;;;5028502;28;20551;-83
2023/08/18 07:54:26;;;;;;;3.53;3.23;;;24.00;96.40;;;;;;5047203;28;20425;-90
2023/08/18 07:56:54;;;;;;;1.57;1.47;;;24.10;97.00;;;;;;5048326;28;20478;-88
2023/08/18 07:59:26;;;;;;;3.03;2.80;;;24.30;96.60;;;;;;5045419;28;20426;-82
2023/08/18 08:01:53;;;;;;;1.27;1.27;;;24.50;95.50;;;;;;5035465;28;20481;-80
2023/08/18 08:04:21;;;;;;;2.30;2.20;;;24.30;95.50;;;;;;5006794;28;20723;-89
2023/08/18 08:06:49;;;;;;;1.23;1.17;;;24.40;95.70;;;;;;5032268;28;20509;-88
2023/08/18 08:09:16;;;;;;;1.67;1.57;;;24.70;95.50;;;;;;5033368;28;20472;-87
2023/08/18 08:11:43;;;;;;;2.50;2.40;;;24.80;94.90;;;;;;5041904;28;20505;-90
2023/08/18 08:14:10;;;;;;;1.30;1.30;;;25.10;94.30;;;;;;5036491;28;20619;-86
2023/08/18 08:16:39;;;;;;;1.40;1.30;;;25.50;94.30;;;;;;5034000;28;20503;-83
2023/08/18 08:19:06;;;;;;;1.13;1.13;;;25.40;93.70;;;;;;5035104;28;20488;-86
2023/08/18 08:21:33;;;;;;;1.50;1.40;;;25.40;93.80;;;;;;5035650;28;20429;-87
2023/08/18 08:24:04;;;;;;;1.70;1.60;;;25.40;93.50;;;;;;5183002;22;20503;-86
2023/08/18 08:26:34;;;;;;;1.00;1.00;;;25.30;94.00;;;;;;5443052;22;20541;-90
2023/08/18 08:29:03;;;;;;;1.27;1.20;;;25.80;93.90;;;;;;5061678;28;20409;-88
2023/08/18 08:31:31;;;;;;;1.67;1.57;;;25.90;93.30;;;;;;5059710;28;20460;-84
2023/08/18 08:33:59;;;;;;;3.80;3.10;;;26.10;92.00;;;;;;5050280;28;20445;-87
2023/08/18 08:36:32;;;;;;;1.73;1.63;;;26.10;92.30;;;;;;5084992;22;20482;-86
2023/08/18 08:39:00;;;;;;;1.60;1.50;;;26.30;92.00;;;;;;5044261;28;20441;-86
2023/08/18 08:41:27;;;;;;;2.17;2.07;;;26.80;91.50;;;;;;5018456;28;20413;-89
2023/08/18 08:43:55;;;;;;;1.10;1.10;;;27.80;89.90;;;;;;5023224;28;20480;-87
2023/08/18 08:46:22;;;;;;;1.70;1.60;;;28.90;84.20;;;;;;5042777;28;20469;-87
2023/08/18 08:48:52;;;;;;;1.60;1.50;;;30.00;83.10;;;;;;5182532;22;20543;-84
2023/08/18 08:51:22;;;;;;;1.90;1.80;;;31.40;75.80;;;;;;5104621;22;20639;-81
2023/08/18 08:53:54;;;;;;;1.03;1.03;;;32.00;69.40;;;;;;5030921;28;20633;-84
2023/08/18 08:56:26;;;;;;;1.37;1.27;;;32.70;65.50;;;;;;5027569;28;20536;-86
2023/08/18 08:58:54;;;;;;;1.30;1.30;;;33.10;62.50;;;;;;5006781;28;20497;-84
2023/08/18 09:01:23;;;;;;;1.80;1.70;;;32.70;63.10;;;;;;5026608;28;20509;-83
2023/08/18 09:03:51;;;;;;;1.20;1.20;;;33.60;60.50;;;;;;5091396;22;20500;-83
2023/08/18 09:06:18;;;;;;;1.67;1.57;;;32.90;58.50;;;;;;5064325;28;20679;-83
2023/08/18 09:08:45;;;;;;;2.70;2.50;;;32.20;61.80;;;;;;5058428;28;20432;-85
2023/08/18 09:11:12;;;;;;;2.50;2.30;;;32.90;61.00;;;;;;5052043;28;20469;-82
2023/08/18 09:13:41;;;;;;;1.77;1.67;;;32.70;59.40;;;;;;5055679;28;20513;-83
2023/08/18 09:16:08;;;;;;;1.57;1.47;;;32.00;61.40;;;;;;5050540;28;20503;-82
2023/08/18 09:18:35;;;;;;;1.70;1.60;;;30.90;63.90;;;;;;5061030;28;20446;-86
2023/08/18 09:21:06;;;;;;;1.23;1.23;;;30.20;67.20;;;;;;5054034;28;20465;-81
2023/08/18 09:23:34;;;;;;;2.73;2.53;;;30.70;66.20;;;;;;5060233;28;20772;-84
2023/08/18 09:26:01;;;;;;;2.43;2.33;;;30.30;66.20;;;;;;5059331;28;20453;-81
2023/08/18 09:28:29;;;;;;;1.73;1.63;;;31.00;66.70;;;;;;5058137;28;20449;-86
2023/08/18 09:30:56;;;;;;;1.30;1.30;;;31.20;65.00;;;;;;5057992;28;20476;-85
2023/08/18 09:33:30;;;;;;;3.70;3.40;;;31.60;63.50;;;;;;5060209;28;20453;-85
2023/08/18 09:36:00;;;;;;;2.50;1.87;;;31.60;63.20;;;;;;5054328;28;20437;-84
2023/08/18 09:38:29;;;;;;;1.80;1.70;;;31.20;63.30;;;;;;5045064;28;20446;-85
2023/08/18 09:41:03;;;;;;;2.03;1.93;;;30.50;60.80;;;;;;5044614;28;20467;-82
2023/08/18 09:43:30;;;;;;;2.20;2.10;;;29.60;66.60;;;;;;5061412;28;20489;-83
2023/08/18 09:45:57;;;;;;;2.53;2.43;;;29.60;68.70;;;;;;5052424;28;20462;-85
2023/08/18 09:48:26;;;;;;;1.47;1.37;;;29.80;70.40;;;;;;5061494;28;20441;-86
2023/08/18 09:50:59;;;;;;;1.30;1.30;;;29.70;69.80;;;;;;5058262;28;20416;-84
2023/08/18 09:53:30;;;;;;;2.57;2.40;;;29.70;69.40;;;;;;5067722;28;20487;-83
2023/08/18 09:56:16;;;;;;;1.10;1.10;;;29.80;69.70;;;;;;5054615;28;20450;-84
2023/08/18 10:01:21;;;;;;;1.47;1.37;;;30.50;70.10;;;;;;5001295;28;20882;-84
2023/08/18 10:03:48;;;;;;;0.97;0.97;;;30.30;70.60;;;;;;5002416;28;20426;-82
2023/08/18 10:06:17;;;;;;;1.90;1.80;;;30.60;70.60;;;;;;5009516;28;20510;-83
2023/08/18 10:08:44;;;;;;;1.70;1.60;;;30.60;69.90;;;;;;4988183;28;20467;-81
2023/08/18 10:11:13;;;;;;;1.50;1.40;;;30.40;70.20;;;;;;5000793;28;20534;-85
2023/08/18 10:13:41;;;;;;;1.60;1.60;;;30.30;70.80;;;;;;4993318;28;20443;-85
2023/08/18 10:16:11;;;;;;;7.93;1.97;;;30.60;71.40;;;;;;4997096;28;20448;-81
2023/08/18 10:18:38;;;;;;;1.23;1.20;;;30.80;69.50;;;;;;5002397;28;20455;-82
2023/08/18 10:21:06;;;;;;;1.57;1.50;;;30.60;69.90;;;;;;5001687;28;20658;-87
2023/08/18 10:23:33;;;;;;;2.07;1.97;;;30.70;69.60;;;;;;4999895;28;20430;-84
2023/08/18 10:26:04;;;;;;;2.57;2.47;;;30.30;66.90;;;;;;5002965;28;20480;-86
2023/08/18 10:28:34;;;;;;;1.40;1.30;;;29.60;69.30;;;;;;4985992;28;20440;-86
2023/08/18 10:31:08;;;;;;;1.80;1.70;;;29.40;70.40;;;;;;5002892;28;20428;-85
2023/08/18 10:33:43;;;;;;;1.50;1.40;;;29.50;70.10;;;;;;5007103;28;20452;-86
2023/08/18 10:36:16;;;;;;;2.50;2.40;;;29.60;71.10;;;;;;4999212;28;20450;-82
2023/08/18 10:38:42;;;;;;;1.87;1.77;;;29.60;70.60;;;;;;4993309;28;20753;-85
2023/08/18 10:41:11;;;;;;;1.20;1.20;;;29.60;71.80;;;;;;5000424;28;20478;-83
2023/08/18 10:43:45;;;;;;;1.17;1.17;;;29.80;70.20;;;;;;4999205;28;20423;-87
2023/08/18 10:46:13;;;;;;;1.73;1.63;;;30.00;71.50;;;;;;4989666;28;20778;-83
2023/08/18 10:48:40;;;;;;;3.53;3.23;;;30.30;70.70;;;;;;4998266;28;20466;-83
2023/08/18 10:51:07;;;;;;;1.00;1.00;;;30.30;69.20;;;;;;5002518;28;20503;-81
2023/08/18 10:53:37;;;;;;;1.50;1.40;;;30.60;71.20;;;;;;4999010;28;20444;-81
2023/08/18 10:56:04;;;;;;;1.97;1.87;;;30.80;68.60;;;;;;5007557;28;20514;-84
2023/08/18 10:58:34;;;;;;;1.53;1.47;;;30.60;69.10;;;;;;5011358;28;20969;-83
2023/08/18 11:01:02;;;;;;;1.40;1.30;;;30.30;67.90;;;;;;5002619;28;20542;-82
2023/08/18 11:03:29;;;;;;;1.83;1.73;;;29.90;71.30;;;;;;5003642;28;20410;-81
2023/08/18 11:05:57;;;;;;;2.40;2.30;;;29.80;69.70;;;;;;5003442;28;20464;-86
2023/08/18 11:08:25;;;;;;;1.93;1.83;;;29.30;70.30;;;;;;4997084;28;20437;-82
2023/08/18 11:10:53;;;;;;;2.60;2.43;;;29.20;71.00;;;;;;5005127;28;20502;-80
2023/08/18 11:13:23;;;;;;;1.77;1.67;;;29.00;73.20;;;;;;4995388;28;20435;-87
2023/08/18 11:15:54;;;;;;;1.37;1.33;;;29.20;70.80;;;;;;4998349;28;20614;-81
2023/08/18 11:18:22;;;;;;;1.57;1.47;;;29.20;69.40;;;;;;4988179;28;20523;-85
2023/08/18 11:20:51;;;;;;;1.63;1.53;;;29.00;69.90;;;;;;4995078;28;20441;-83
2023/08/18 11:23:19;;;;;;;2.10;2.00;;;29.10;71.50;;;;;;4997797;28;20473;-83
2023/08/18 11:25:46;;;;;;;2.80;2.60;;;29.00;71.10;;;;;;5000283;28;20474;-82
2023/08/18 11:28:14;;;;;;;1.03;1.03;;;28.90;68.40;;;;;;4982693;28;20539;-88
2023/08/18 11:30:41;;;;;;;1.80;1.70;;;28.90;70.40;;;;;;4996518;28;20443;-82
2023/08/18 11:33:08;;;;;;;1.67;1.57;;;29.10;69.50;;;;;;4990766;28;20515;-85
2023/08/18 11:35:35;;;;;;;1.67;1.57;;;28.80;70.00;;;;;;4993235;28;20455;-81
2023/08/18 11:38:03;;;;;;;1.00;1.00;;;28.70;71.50;;;;;;4990492;28;20461;-80
2023/08/18 11:40:38;;;;;;;1.13;1.13;;;29.00;71.50;;;;;;4996977;28;20447;-86
2023/08/18 11:43:11;;;;;;;1.97;1.87;;;29.20;70.70;;;;;;4998811;28;20460;-86
2023/08/18 11:45:38;;;;;;;1.53;1.43;;;29.60;68.70;;;;;;4997542;28;20422;-84
2023/08/18 11:48:07;;;;;;;1.20;1.20;;;29.80;68.20;;;;;;5218108;22;20553;-84
2023/08/18 11:50:39;;;;;;;3.20;3.00;;;30.20;67.50;;;;;;5029624;28;20449;-82
2023/08/18 11:53:07;;;;;;;1.20;1.20;;;30.20;68.30;;;;;;5039177;28;20501;-80
2023/08/18 11:55:43;;;;;;;1.80;1.70;;;30.50;67.20;;;;;;5031663;28;20727;-82
2023/08/18 11:58:14;;;;;;;2.83;2.70;;;30.40;66.00;;;;;;5038159;28;20487;-85
2023/08/18 12:00:44;;;;;;;1.80;1.70;;;30.40;65.30;;;;;;5028438;28;20443;-87
2023/08/18 12:03:26;;;;;;;1.80;1.70;;;30.80;65.70;;;;;;5037451;28;20446;-80
2023/08/18 12:05:58;;;;;;;1.50;1.40;;;30.60;67.00;;;;;;5040743;28;20423;-89
2023/08/18 12:08:26;;;;;;;3.30;3.10;;;31.00;68.10;;;;;;5059070;28;20503;-82
2023/08/18 12:10:54;;;;;;;2.60;2.40;;;31.20;66.70;;;;;;5044802;28;20733;-83
2023/08/18 12:13:22;;;;;;;1.70;1.60;;;31.20;66.20;;;;;;5048231;28;20441;-80
2023/08/18 12:15:50;;;;;;;2.07;1.97;;;30.00;69.60;;;;;;5043279;28;20453;-82
2023/08/18 12:18:18;;;;;;;1.77;1.67;;;29.70;71.40;;;;;;5041267;28;20512;-86
2023/08/18 12:20:46;;;;;;;2.27;2.07;;;29.60;71.60;;;;;;5039197;28;20441;-83
2023/08/18 12:23:13;;;;;;;2.00;1.90;;;29.60;72.70;;;;;;5033922;28;20445;-83
2023/08/18 12:25:43;;;;;;;1.47;1.43;;;29.40;71.60;;;;;;5039861;28;20776;-85
2023/08/18 12:28:10;;;;;;;2.00;1.73;;;29.40;72.70;;;;;;5027124;28;20478;-83
2023/08/18 12:33:19;;;;;;;2.27;2.07;;;29.20;71.60;;;;;;5147132;22;20501;-81
2023/08/18 12:35:47;;;;;;;2.70;2.50;;;29.40;70.80;;;;;;5024031;28;20421;-85
2023/08/18 12:38:14;;;;;;;1.73;1.63;;;29.60;68.50;;;;;;5013523;28;20532;-82
2023/08/18 12:40:40;;;;;;;1.50;1.40;;;29.90;66.60;;;;;;5033820;28;20478;-84
2023/08/18 12:43:09;;;;;;;1.67;1.57;;;29.50;65.80;;;;;;5005261;28;20510;-84
2023/08/18 12:45:36;;;;;;;1.93;1.83;;;29.30;68.00;;;;;;5020714;28;20447;-84
2023/08/18 12:48:03;;;;;;;2.30;2.10;;;29.70;68.10;;;;;;5021556;28;20445;-84
2023/08/18 12:50:30;;;;;;;1.40;1.30;;;29.90;67.20;;;;;;5020854;28;20425;-81
2023/08/18 12:52:57;;;;;;;2.60;2.50;;;29.70;67.50;;;;;;5022871;28;20517;-82
2023/08/18 12:55:24;;;;;;;1.70;1.60;;;29.90;67.40;;;;;;5010129;28;20453;-83
2023/08/18 12:57:51;;;;;;;1.73;1.73;;;30.30;67.50;;;;;;5026191;28;20471;-80
2023/08/18 13:00:19;;;;;;;2.20;2.10;;;30.60;67.20;;;;;;5027249;28;20397;-81
2023/08/18 13:02:46;;;;;;;2.80;2.60;;;30.50;64.90;;;;;;5032024;28;20523;-85
2023/08/18 13:05:13;;;;;;;1.97;1.87;;;30.90;65.90;;;;;;5025259;28;20517;-83
2023/08/18 13:07:40;;;;;;;2.17;2.07;;;30.70;65.10;;;;;;5027713;28;20489;-85
2023/08/18 13:10:07;;;;;;;2.50;2.30;;;30.50;66.00;;;;;;5027254;28;20525;-80
2023/08/18 13:12:34;;;;;;;1.33;1.23;;;30.20;67.20;;;;;;5010877;28;20479;-82
2023/08/18 13:15:02;;;;;;;1.17;1.17;;;30.30;68.60;;;;;;5022453;28;20464;-85
2023/08/18 13:17:29;;;;;;;2.00;1.90;;;30.20;67.40;;;;;;5013342;28;20545;-82
2023/08/18 13:19:56;;;;;;;4.00;2.13;;;30.20;67.70;;;;;;5018669;28;20758;-81
2023/08/18 13:22:24;;;;;;;1.30;1.30;;;30.20;68.20;;;;;;5016507;28;20440;-87
2023/08/18 13:24:54;;;;;;;1.10;1.10;;;30.00;68.60;;;;;;5026263;28;20451;-86
2023/08/18 13:27:21;;;;;;;2.00;1.90;;;29.90;68.90;;;;;;5359683;22;20742;-83
2023/08/18 13:29:51;;;;;;;1.73;1.63;;;30.20;68.50;;;;;;5016887;28;20410;-87
2023/08/18 13:32:18;;;;;;;1.77;1.67;;;30.30;66.80;;;;;;5003672;28;20482;-90
2023/08/18 13:34:46;;;;;;;2.70;2.60;;;30.30;67.60;;;;;;5200715;22;20734;-86
2023/08/18 13:37:13;;;;;;;1.80;1.70;;;30.60;67.30;;;;;;5041000;28;20488;-85
2023/08/18 13:39:41;;;;;;;1.20;1.20;;;30.30;66.90;;;;;;5041477;28;20513;-81
2023/08/18 13:42:07;;;;;;;3.10;2.90;;;29.80;69.00;;;;;;5041956;28;20509;-80
2023/08/18 13:44:35;;;;;;;1.20;1.10;;;29.50;70.10;;;;;;5041216;28;20480;-83
2023/08/18 13:47:01;;;;;;;1.93;1.83;;;29.70;69.80;;;;;;5040592;28;20434;-82
2023/08/18 13:49:29;;;;;;;2.07;1.97;;;29.30;71.30;;;;;;5044517;28;20423;-80
2023/08/18 13:51:56;;;;;;;2.10;2.00;;;29.70;69.30;;;;;;5041450;28;20420;-86
2023/08/18 13:54:22;;;;;;;1.97;1.70;;;29.90;67.80;;;;;;5038873;28;20421;-84
2023/08/18 13:56:49;;;;;;;1.67;1.57;;;29.80;68.40;;;;;;5176663;22;20577;-80
2023/08/18 13:59:16;;;;;;;1.73;1.63;;;30.00;67.00;;;;;;5028005;28;20871;-83
2023/08/18 14:01:45;;;;;;;1.93;1.83;;;29.60;68.50;;;;;;5023016;28;20413;-80
2023/08/18 14:04:12;;;;;;;2.50;2.30;;;30.00;68.40;;;;;;5034255;28;20424;-84
2023/08/18 14:06:39;;;;;;;1.70;1.60;;;30.20;66.60;;;;;;5432017;22;20849;-80
2023/08/18 14:09:07;;;;;;;2.10;2.00;;;30.00;66.50;;;;;;5045541;28;20453;-83
2023/08/18 14:11:34;;;;;;;1.07;1.07;;;30.00;67.40;;;;;;5049625;28;20518;-80
2023/08/18 14:16:29;;;;;;;1.63;1.53;;;29.70;66.20;;;;;;5027443;28;20436;-83
2023/08/18 14:18:59;;;;;;;1.80;1.70;;;29.80;67.70;;;;;;5014168;28;20876;-87
2023/08/18 14:21:25;;;;;;;1.20;1.20;;;29.70;68.40;;;;;;5012710;28;20416;-85